Time;durP1;ratioP1;P1;durP2;ratioP2;P2;SDS_P1;SDS_P2;PMS_P1;PMS_P2;Temp;Humidity;BMP_temperature;BMP_pressure;BME280_temperature;BME280_humidity;BME280_pressure;Samples;Min_cycle;Max_cycle;Signal;HPM_P1;HPM_P2
2022/03/02 00:01:04;;;;;;;23.23;12.43;;;;;;;4.93;47.82;101572.50;4178826;28;20502;-60
2022/03/02 00:03:07;;;;;;;21.08;12.93;;;;;;;4.77;48.23;101587.09;4163349;28;20037;-60
2022/03/02 00:05:11;;;;;;;23.08;13.85;;;;;;;4.57;48.19;101586.00;4172301;28;20098;-60
2022/03/02 00:07:14;;;;;;;21.95;13.15;;;;;;;4.61;48.50;101581.88;4180724;28;20045;-60
2022/03/02 00:09:17;;;;;;;20.85;12.98;;;;;;;4.62;48.42;101587.13;4164294;28;20506;-59
2022/03/02 00:11:20;;;;;;;20.60;12.75;;;;;;;4.67;48.20;101584.81;4166626;28;20092;-60
2022/03/02 00:13:23;;;;;;;20.98;11.80;;;;;;;4.72;47.99;101583.38;4179599;28;20048;-60
2022/03/02 00:15:26;;;;;;;22.38;11.80;;;;;;;4.72;48.12;101579.09;4168890;28;20041;-60
2022/03/02 00:17:30;;;;;;;20.10;12.48;;;;;;;4.73;48.00;101592.88;4163998;28;20115;-59
2022/03/02 00:19:33;;;;;;;20.80;12.68;;;;;;;4.68;48.12;101594.31;4177448;28;20045;-60
2022/03/02 00:21:37;;;;;;;19.58;11.40;;;;;;;4.68;47.86;101597.75;4178258;28;20083;-59
2022/03/02 00:23:40;;;;;;;22.80;12.68;;;;;;;4.71;47.63;101589.31;4163149;28;20045;-62
2022/03/02 00:25:43;;;;;;;18.23;12.90;;;;;;;4.66;48.40;101583.03;4168768;28;20457;-59
2022/03/02 00:27:45;;;;;;;21.23;13.05;;;;;;;4.68;48.53;101586.59;4180388;28;20041;-59
2022/03/02 00:29:48;;;;;;;22.63;13.93;;;;;;;4.68;47.87;101581.44;4178872;28;20509;-60
2022/03/02 00:31:52;;;;;;;22.52;14.02;;;;;;;4.65;48.12;101578.69;4165621;28;20439;-60
2022/03/02 00:33:56;;;;;;;21.38;12.82;;;;;;;4.68;48.47;101571.13;4171714;28;20045;-60
2022/03/02 00:35:58;;;;;;;21.57;13.80;;;;;;;4.70;48.71;101569.50;4180165;28;20095;-60
2022/03/02 00:38:02;;;;;;;22.20;12.90;;;;;;;4.69;48.80;101565.19;4180234;28;20634;-60
2022/03/02 00:40:05;;;;;;;20.42;12.60;;;;;;;4.63;48.75;101559.66;4180149;28;20037;-60
2022/03/02 00:42:08;;;;;;;19.13;13.85;;;;;;;4.52;49.17;101562.53;4178722;28;20029;-60
2022/03/02 00:44:13;;;;;;;20.23;13.50;;;;;;;4.48;49.00;101555.47;4180206;28;20053;-60
2022/03/02 00:46:16;;;;;;;20.60;12.88;;;;;;;4.47;47.77;101561.41;4178204;28;20037;-60
2022/03/02 00:48:19;;;;;;;18.35;11.82;;;;;;;4.50;48.20;101556.41;4181927;28;20090;-60
2022/03/02 00:50:24;;;;;;;17.75;11.25;;;;;;;4.56;48.02;101561.03;4167797;28;20100;-60
2022/03/02 00:52:27;;;;;;;19.23;12.65;;;;;;;4.53;47.59;101559.16;4168901;28;20054;-60
2022/03/02 00:54:30;;;;;;;17.60;12.55;;;;;;;4.57;47.68;101555.09;4181196;28;20083;-60
2022/03/02 00:56:33;;;;;;;20.17;13.05;;;;;;;4.57;47.15;101546.44;4177232;28;20037;-59
2022/03/02 00:58:36;;;;;;;19.85;12.82;;;;;;;4.54;46.77;101542.91;4166794;28;20048;-60
2022/03/02 01:00:39;;;;;;;16.13;11.23;;;;;;;4.53;47.18;101546.28;4166258;28;20091;-59
2022/03/02 01:02:42;;;;;;;17.50;12.55;;;;;;;4.56;46.66;101545.56;4165862;28;20045;-60
2022/03/02 01:04:44;;;;;;;23.00;11.68;;;;;;;4.53;47.05;101540.25;4182216;28;20448;-60
2022/03/02 01:06:49;;;;;;;20.48;12.30;;;;;;;4.70;46.19;101541.19;4180645;28;20049;-60
2022/03/02 01:08:51;;;;;;;20.05;12.43;;;;;;;4.63;46.12;101542.53;4171706;28;20045;-60
2022/03/02 01:10:54;;;;;;;16.20;11.50;;;;;;;4.65;46.23;101534.91;4176716;28;20037;-60
2022/03/02 01:12:57;;;;;;;19.20;11.35;;;;;;;4.61;45.94;101531.25;4165645;28;20056;-60
2022/03/02 01:15:00;;;;;;;18.88;11.55;;;;;;;4.62;45.96;101529.59;4175896;28;20052;-60
2022/03/02 01:17:03;;;;;;;19.33;11.35;;;;;;;4.61;46.28;101535.53;4182756;28;20447;-59
2022/03/02 01:19:06;;;;;;;20.35;12.35;;;;;;;4.61;45.79;101528.69;4169447;28;20506;-60
2022/03/02 01:21:09;;;;;;;16.05;10.32;;;;;;;4.62;46.19;101517.59;4180437;28;20445;-59
2022/03/02 01:23:13;;;;;;;16.52;9.50;;;;;;;4.58;46.56;101512.19;4165407;28;20049;-59
2022/03/02 01:25:16;;;;;;;18.70;11.03;;;;;;;4.50;46.78;101520.38;4171016;28;20041;-59
2022/03/02 01:27:19;;;;;;;17.45;11.15;;;;;;;4.53;46.34;101525.69;4182708;28;20414;-60
2022/03/02 01:29:23;;;;;;;18.05;12.23;;;;;;;4.59;46.39;101524.28;4173888;28;20509;-60
2022/03/02 01:31:27;;;;;;;33.80;11.43;;;;;;;4.59;46.17;101525.16;4166299;28;20065;-58
2022/03/02 01:33:30;;;;;;;19.45;12.32;;;;;;;4.66;46.00;101524.69;4177470;28;20099;-59
2022/03/02 01:35:33;;;;;;;18.27;10.73;;;;;;;4.59;46.49;101520.00;4176679;28;20550;-59
2022/03/02 01:37:35;;;;;;;20.73;11.65;;;;;;;4.50;46.52;101522.06;4166251;28;20080;-60
2022/03/02 01:39:40;;;;;;;16.17;10.50;;;;;;;4.47;47.27;101520.19;4173943;28;20056;-59
2022/03/02 01:41:42;;;;;;;20.13;11.35;;;;;;;4.46;47.07;101533.00;4182510;28;20513;-59
2022/03/02 01:43:45;;;;;;;15.55;10.88;;;;;;;4.46;47.96;101523.56;4169684;28;20041;-59
2022/03/02 01:45:48;;;;;;;17.90;11.30;;;;;;;4.53;47.01;101527.38;4166383;28;20041;-59
2022/03/02 01:47:52;;;;;;;18.77;11.68;;;;;;;4.53;47.55;101519.66;4180936;28;20106;-59
2022/03/02 01:49:55;;;;;;;18.17;11.50;;;;;;;4.46;47.39;101513.25;4181394;28;20056;-59
2022/03/02 01:51:57;;;;;;;18.83;11.23;;;;;;;4.43;48.33;101507.06;4181322;28;20506;-59
2022/03/02 01:54:00;;;;;;;16.13;10.40;;;;;;;4.43;48.71;101512.22;4176471;28;20042;-59
2022/03/02 01:56:05;;;;;;;18.85;12.70;;;;;;;4.39;49.24;101503.41;4165727;28;20454;-59
2022/03/02 01:58:08;;;;;;;20.52;11.95;;;;;;;4.31;49.16;101507.28;4174337;28;20063;-59
2022/03/02 02:00:13;;;;;;;15.98;12.25;;;;;;;4.23;49.49;101506.81;4182079;28;20099;-60
2022/03/02 02:02:16;;;;;;;17.48;11.50;;;;;;;4.17;49.24;101502.19;4176708;28;20037;-59
2022/03/02 02:04:20;;;;;;;18.65;11.35;;;;;;;4.17;49.07;101498.75;4181877;28;20441;-60
2022/03/02 02:06:23;;;;;;;19.27;11.00;;;;;;;4.17;49.89;101499.63;4165575;28;20038;-60
2022/03/02 02:08:25;;;;;;;19.33;12.23;;;;;;;4.15;49.13;101500.38;4166800;28;20120;-59
2022/03/02 02:10:29;;;;;;;19.55;11.38;;;;;;;4.07;49.57;101502.47;4165695;28;20045;-60
2022/03/02 02:12:33;;;;;;;17.30;11.93;;;;;;;4.03;49.05;101490.25;4171793;28;20044;-59
2022/03/02 02:14:36;;;;;;;21.85;12.35;;;;;;;3.97;50.12;101487.31;4181791;28;20047;-59
2022/03/02 02:16:38;;;;;;;18.30;11.18;;;;;;;3.99;50.04;101483.16;4175016;28;20107;-60
2022/03/02 02:18:42;;;;;;;17.17;11.00;;;;;;;3.96;50.28;101481.28;4173929;28;20072;-60
2022/03/02 02:20:46;;;;;;;21.48;12.15;;;;;;;3.94;50.94;101484.56;4179534;28;20052;-60
2022/03/02 02:22:49;;;;;;;19.58;11.88;;;;;;;3.87;49.98;101491.06;4179481;28;20041;-59
2022/03/02 02:24:52;;;;;;;19.70;12.27;;;;;;;3.85;50.67;101479.78;4178508;28;20530;-60
2022/03/02 02:26:55;;;;;;;16.17;11.52;;;;;;;3.87;50.57;101479.88;4176756;28;20065;-60
2022/03/02 02:29:06;;;;;;;19.45;13.20;;;;;;;3.90;50.47;101473.22;4165317;28;20080;-59
2022/03/02 02:31:09;;;;;;;22.58;13.57;;;;;;;3.94;50.17;101475.19;4174784;28;20094;-60
2022/03/02 02:33:12;;;;;;;19.55;12.90;;;;;;;3.95;49.51;101471.78;4173650;28;20034;-59
2022/03/02 02:35:15;;;;;;;22.75;12.25;;;;;;;3.91;49.71;101468.97;4178259;28;20049;-59
2022/03/02 02:37:19;;;;;;;18.58;11.52;;;;;;;3.93;49.75;101464.78;4180792;28;20083;-60
2022/03/02 02:39:25;;;;;;;20.52;12.05;;;;;;;3.90;50.43;101468.09;4165164;28;20049;-60
2022/03/02 02:41:27;;;;;;;18.60;12.13;;;;;;;3.88;50.50;101464.53;4164405;28;20045;-59
2022/03/02 02:43:30;;;;;;;16.60;11.50;;;;;;;3.84;51.30;101463.47;4165317;28;20037;-59
2022/03/02 02:45:33;;;;;;;19.90;13.02;;;;;;;3.79;50.74;101458.84;4172406;28;20106;-60
2022/03/02 02:47:36;;;;;;;22.30;12.65;;;;;;;3.70;51.08;101460.91;4169726;28;20341;-60
2022/03/02 02:49:38;;;;;;;20.67;13.60;;;;;;;3.65;51.29;101461.53;4175773;28;20049;-59
2022/03/02 02:51:41;;;;;;;17.67;12.85;;;;;;;3.63;51.54;101465.66;4180581;28;20462;-59
2022/03/02 02:53:45;;;;;;;20.05;12.82;;;;;;;3.64;51.28;101457.16;4165784;28;20565;-59
2022/03/02 02:55:50;;;;;;;18.42;11.32;;;;;;;3.60;51.56;101464.63;4170251;28;20411;-59
2022/03/02 02:57:53;;;;;;;21.50;13.05;;;;;;;3.58;51.36;101458.50;4180024;28;20049;-59
2022/03/02 02:59:56;;;;;;;17.50;12.05;;;;;;;3.59;51.99;101461.16;4172170;28;20498;-59
2022/03/02 03:01:59;;;;;;;18.58;11.63;;;;;;;3.61;51.45;101453.53;4180976;28;20041;-59
2022/03/02 03:04:03;;;;;;;17.23;13.02;;;;;;;3.60;51.46;101455.19;4179371;28;20044;-59
2022/03/02 03:06:06;;;;;;;18.52;13.07;;;;;;;3.56;51.63;101462.66;4180422;28;20082;-59
2022/03/02 03:08:11;;;;;;;21.58;13.07;;;;;;;3.52;51.96;101469.31;4166062;28;20046;-59
2022/03/02 03:10:17;;;;;;;21.58;13.50;;;;;;;3.46;52.06;101472.41;4166432;28;20041;-59
2022/03/02 03:12:19;;;;;;;18.13;11.82;;;;;;;3.43;51.98;101461.03;4179150;28;20037;-60
2022/03/02 03:14:22;;;;;;;16.08;11.27;;;;;;;3.49;51.38;101456.28;4174059;28;20041;-60
2022/03/02 03:16:25;;;;;;;17.13;11.05;;;;;;;3.53;51.70;101457.34;4164499;28;20072;-59
2022/03/02 03:18:27;;;;;;;18.98;11.68;;;;;;;3.53;51.61;101455.63;4165704;28;20048;-60
2022/03/02 03:20:31;;;;;;;19.63;11.82;;;;;;;3.51;52.07;101452.09;4164788;28;20045;-60
2022/03/02 03:22:34;;;;;;;20.27;12.90;;;;;;;3.47;51.98;101451.03;4163658;28;20045;-60
2022/03/02 03:24:36;;;;;;;18.30;12.38;;;;;;;3.47;52.19;101450.16;4167099;28;20041;-60
2022/03/02 03:26:40;;;;;;;20.40;12.90;;;;;;;3.51;51.80;101440.94;4180554;28;20107;-60
2022/03/02 03:28:43;;;;;;;19.37;12.00;;;;;;;3.47;51.44;101448.44;4165085;28;20049;-60
2022/03/02 03:30:46;;;;;;;17.00;11.20;;;;;;;3.46;52.35;101449.28;4164723;28;20049;-60
2022/03/02 03:32:50;;;;;;;18.63;12.00;;;;;;;3.47;52.70;101443.31;4180007;28;20487;-60
2022/03/02 03:34:53;;;;;;;16.85;11.65;;;;;;;3.62;51.37;101442.44;4170470;28;20060;-60
2022/03/02 03:36:56;;;;;;;18.95;11.30;;;;;;;3.62;49.91;101440.78;4164360;28;20045;-60
2022/03/02 03:38:58;;;;;;;17.05;11.43;;;;;;;3.55;49.75;101437.72;4174941;28;20041;-60
2022/03/02 03:41:01;;;;;;;14.15;10.27;;;;;;;3.48;50.26;101442.53;4178805;28;20053;-60
2022/03/02 03:43:05;;;;;;;15.88;10.88;;;;;;;3.49;50.30;101434.03;4179798;28;20095;-60
2022/03/02 03:45:09;;;;;;;17.70;11.55;;;;;;;3.46;50.59;101444.13;4179156;28;20043;-60
2022/03/02 03:47:12;;;;;;;17.80;11.45;;;;;;;3.59;49.69;101439.69;4164317;28;20095;-59
2022/03/02 03:49:15;;;;;;;19.98;11.57;;;;;;;3.52;49.71;101438.47;4178245;28;20513;-60
2022/03/02 03:51:18;;;;;;;18.15;10.90;;;;;;;3.51;49.46;101431.53;4178646;28;20110;-60
2022/03/02 03:53:21;;;;;;;15.77;10.65;;;;;;;3.44;49.67;101439.69;4165780;28;20045;-59
2022/03/02 03:55:24;;;;;;;14.68;10.07;;;;;;;3.42;49.96;101439.59;4174997;28;20056;-60
2022/03/02 03:57:26;;;;;;;17.27;11.32;;;;;;;3.39;50.23;101439.41;4162879;28;20087;-60
2022/03/02 03:59:31;;;;;;;16.52;11.77;;;;;;;3.38;50.36;101437.63;4172743;28;20398;-60
2022/03/02 04:01:33;;;;;;;15.77;10.98;;;;;;;3.34;50.35;101434.81;4180492;28;20044;-60
2022/03/02 04:03:36;;;;;;;17.58;11.32;;;;;;;3.32;50.36;101429.56;4166017;28;20041;-60
2022/03/02 04:05:39;;;;;;;16.70;11.30;;;;;;;3.31;50.86;101427.78;4164059;28;20091;-59
2022/03/02 04:07:42;;;;;;;16.23;10.68;;;;;;;3.29;50.66;101419.13;4172477;28;20045;-59
2022/03/02 04:09:44;;;;;;;20.33;12.75;;;;;;;3.27;50.93;101412.97;4165086;28;20069;-59
2022/03/02 04:11:47;;;;;;;18.00;10.75;;;;;;;3.24;51.41;101420.50;4164036;28;20128;-60
2022/03/02 04:13:50;;;;;;;19.83;11.40;;;;;;;3.24;51.22;101413.72;4169283;28;20040;-60
2022/03/02 04:15:54;;;;;;;16.52;10.45;;;;;;;3.24;51.16;101415.38;4180609;28;20098;-59
2022/03/02 04:17:57;;;;;;;17.33;10.65;;;;;;;3.22;51.87;101410.16;4171048;28;20491;-59
2022/03/02 04:20:00;;;;;;;15.48;11.15;;;;;;;3.25;51.59;101406.88;4180202;28;20041;-59
2022/03/02 04:22:03;;;;;;;16.77;10.50;;;;;;;3.24;51.67;101406.00;4170183;28;20491;-60
2022/03/02 04:24:06;;;;;;;17.88;11.88;;;;;;;3.24;51.52;101394.81;4170194;28;20541;-60
2022/03/02 04:26:10;;;;;;;15.55;10.68;;;;;;;3.21;51.66;101402.34;4183749;28;20048;-60
2022/03/02 04:28:13;;;;;;;15.52;10.60;;;;;;;3.17;52.02;101396.16;4176592;28;20046;-60
2022/03/02 04:30:15;;;;;;;19.27;11.68;;;;;;;3.16;51.75;101396.06;4167191;28;20049;-59
2022/03/02 04:32:20;;;;;;;15.88;11.15;;;;;;;3.13;51.86;101400.22;4176561;28;20045;-59
2022/03/02 04:34:22;;;;;;;18.23;11.63;;;;;;;3.10;51.60;101394.00;4183295;28;20048;-60
2022/03/02 04:36:25;;;;;;;15.43;10.90;;;;;;;3.10;51.85;101394.88;4181676;28;20056;-60
2022/03/02 04:38:28;;;;;;;14.52;10.02;;;;;;;3.06;52.06;101390.34;4182092;28;20049;-60
2022/03/02 04:40:31;;;;;;;16.25;10.75;;;;;;;3.07;52.49;101388.69;4166976;28;20042;-60
2022/03/02 04:42:34;;;;;;;19.73;10.43;;;;;;;2.99;51.53;101379.63;4164967;28;20096;-60
2022/03/02 04:44:36;;;;;;;20.02;12.07;;;;;;;2.94;52.37;101381.94;4174344;28;20094;-60
2022/03/02 04:46:39;;;;;;;16.25;10.90;;;;;;;2.91;52.59;101381.75;4166923;28;20041;-59
2022/03/02 04:48:43;;;;;;;20.08;12.27;;;;;;;2.91;52.95;101374.94;4182004;28;20037;-59
2022/03/02 04:50:46;;;;;;;17.60;11.88;;;;;;;2.87;53.43;101370.41;4172549;28;20045;-59
2022/03/02 04:52:50;;;;;;;21.02;12.93;;;;;;;2.84;53.28;101369.34;4182452;28;20522;-59
2022/03/02 04:55:09;;;;;;;19.00;11.48;;;;;;;2.81;54.44;101375.16;4172434;28;20037;-59
2022/03/02 04:57:12;;;;;;;20.63;12.38;;;;;;;2.73;55.14;101369.56;4175194;28;20052;-60
2022/03/02 04:59:15;;;;;;;17.55;11.55;;;;;;;2.70;55.82;101371.97;4180469;28;20052;-60
2022/03/02 05:01:18;;;;;;;19.83;11.75;;;;;;;2.69;55.58;101367.63;4181230;28;20045;-63
2022/03/02 05:03:21;;;;;;;20.23;13.13;;;;;;;2.67;56.05;101364.03;4175827;28;20442;-60
2022/03/02 05:05:27;;;;;;;17.40;12.18;;;;;;;2.71;56.15;101371.16;4175267;28;20072;-60
2022/03/02 05:07:30;;;;;;;19.98;12.80;;;;;;;2.72;56.39;101377.19;4177339;28;20084;-60
2022/03/02 05:09:33;;;;;;;19.95;11.98;;;;;;;2.73;56.54;101379.84;4179440;28;20045;-60
2022/03/02 05:11:36;;;;;;;17.77;12.70;;;;;;;2.75;56.62;101385.06;4185799;28;20437;-60
2022/03/02 05:13:38;;;;;;;20.00;11.68;;;;;;;2.71;56.40;101376.28;4197217;28;20440;-60
2022/03/02 05:15:41;;;;;;;22.45;13.02;;;;;;;2.72;56.77;101385.78;4173808;28;20053;-60
2022/03/02 05:17:45;;;;;;;17.25;11.90;;;;;;;2.81;56.55;101384.56;4166432;28;20569;-60
2022/03/02 05:19:48;;;;;;;17.85;11.40;;;;;;;2.80;55.99;101375.94;4170544;28;20045;-60
2022/03/02 05:21:52;;;;;;;19.92;12.10;;;;;;;2.85;55.52;101374.56;4184988;28;20044;-59
2022/03/02 05:23:55;;;;;;;19.17;12.23;;;;;;;2.91;54.98;101374.94;4177432;28;20040;-60
2022/03/02 05:25:57;;;;;;;18.58;12.02;;;;;;;2.95;55.65;101381.16;4193595;28;20075;-60
2022/03/02 05:28:00;;;;;;;16.40;11.10;;;;;;;2.98;55.02;101383.91;4174086;28;20045;-60
2022/03/02 05:30:04;;;;;;;18.27;12.95;;;;;;;3.00;54.93;101378.84;4182139;28;20045;-60
2022/03/02 05:32:08;;;;;;;17.23;11.70;;;;;;;2.99;54.46;101372.81;4172502;28;20088;-60
2022/03/02 05:34:10;;;;;;;20.25;12.35;;;;;;;3.03;53.77;101366.19;4164789;28;20053;-60
2022/03/02 05:36:13;;;;;;;17.25;11.18;;;;;;;3.05;52.36;101373.19;4165976;28;20068;-59
2022/03/02 05:38:17;;;;;;;37.05;15.30;;;;;;;3.09;51.94;101359.72;4174008;28;20033;-60
2022/03/02 05:40:20;;;;;;;20.40;11.65;;;;;;;3.10;51.02;101364.06;4181327;28;20052;-60
2022/03/02 05:42:27;;;;;;;18.17;10.40;;;;;;;3.11;51.34;101368.41;4167576;28;20140;-59
2022/03/02 05:44:30;;;;;;;18.10;10.43;;;;;;;3.11;51.89;101367.50;4167213;28;20041;-60
2022/03/02 05:46:33;;;;;;;17.90;11.65;;;;;;;3.08;51.87;101375.94;4181723;28;20048;-60
2022/03/02 05:48:36;;;;;;;19.95;11.95;;;;;;;3.11;51.90;101382.91;4182394;28;20127;-60
2022/03/02 05:50:38;;;;;;;16.00;10.15;;;;;;;3.07;52.52;101383.56;4182414;28;20045;-59
2022/03/02 05:52:43;;;;;;;17.58;10.50;;;;;;;3.03;52.21;101379.91;4166263;28;20125;-59
2022/03/02 05:54:47;;;;;;;18.83;10.73;;;;;;;2.93;52.19;101383.59;4166729;28;20053;-59
2022/03/02 05:56:50;;;;;;;25.35;12.45;;;;;;;2.84;53.17;101384.75;4182296;28;20040;-60
2022/03/02 05:58:53;;;;;;;21.80;12.85;;;;;;;2.71;52.69;101381.41;4180728;28;20053;-60
2022/03/02 06:00:56;;;;;;;18.38;12.30;;;;;;;2.65;53.38;101386.19;4181983;28;20087;-60
2022/03/02 06:02:59;;;;;;;19.27;11.73;;;;;;;2.64;53.33;101389.53;4181536;28;20438;-59
2022/03/02 06:05:02;;;;;;;17.88;11.27;;;;;;;2.56;54.02;101380.50;4167205;28;20045;-59
2022/03/02 06:07:05;;;;;;;17.95;11.52;;;;;;;2.62;53.84;101386.88;4166615;28;20088;-60
2022/03/02 06:09:09;;;;;;;18.88;11.15;;;;;;;2.62;53.52;101386.00;4168690;28;20041;-60
2022/03/02 06:11:14;;;;;;;21.45;12.40;;;;;;;2.61;53.76;101389.34;4182105;28;20078;-59
2022/03/02 06:13:17;;;;;;;16.20;11.48;;;;;;;2.60;53.93;101393.59;4175035;28;20045;-60
2022/03/02 06:15:20;;;;;;;20.02;12.07;;;;;;;2.60;54.38;101391.03;4165560;28;20442;-60
2022/03/02 06:17:23;;;;;;;19.63;12.27;;;;;;;2.58;54.42;101394.31;4171790;28;20111;-60
2022/03/02 06:19:26;;;;;;;22.80;12.65;;;;;;;2.59;54.25;101396.97;4181286;28;20438;-60
2022/03/02 06:21:32;;;;;;;19.73;12.38;;;;;;;2.66;54.23;101398.25;4181733;28;20029;-60
2022/03/02 06:23:35;;;;;;;18.23;11.73;;;;;;;2.70;54.43;101394.16;4173083;28;20061;-60
2022/03/02 06:25:38;;;;;;;20.63;11.90;;;;;;;2.66;54.22;101400.81;4165600;28;20042;-60
2022/03/02 06:27:42;;;;;;;19.67;12.98;;;;;;;2.66;54.19;101405.03;4166222;28;20515;-60
2022/03/02 06:29:45;;;;;;;23.00;12.17;;;;;;;2.70;54.97;101402.78;4165673;28;20049;-60
2022/03/02 06:31:48;;;;;;;17.17;11.30;;;;;;;2.71;54.10;101412.22;4178823;28;20302;-60
2022/03/02 06:33:51;;;;;;;17.83;11.93;;;;;;;2.65;54.00;101406.72;4168381;28;20049;-60
2022/03/02 06:35:54;;;;;;;18.67;11.27;;;;;;;2.67;54.00;101410.25;4168567;28;20632;-60
2022/03/02 06:37:57;;;;;;;17.98;11.15;;;;;;;2.73;53.63;101418.38;4175605;28;20704;-60
2022/03/02 06:40:00;;;;;;;17.52;11.45;;;;;;;2.89;53.86;101420.19;4169642;28;20041;-60
2022/03/02 06:42:09;;;;;;;16.95;11.60;;;;;;;2.90;53.76;101411.66;4179390;28;20052;-61
2022/03/02 06:44:27;;;;;;;18.05;10.75;;;;;;;2.93;53.25;101405.84;4125403;28;20124;-60
2022/03/02 06:46:33;;;;;;;17.98;11.57;;;;;;;2.94;53.06;101403.34;4174443;28;20414;-60
2022/03/02 06:48:43;;;;;;;21.33;11.88;;;;;;;2.99;53.52;101403.63;4178790;28;20049;-60
2022/03/02 06:50:51;;;;;;;23.40;12.93;;;;;;;3.08;54.08;101409.34;4174085;28;20425;-61
2022/03/02 06:52:55;;;;;;;17.48;11.05;;;;;;;3.09;54.96;101400.81;4178938;28;20041;-61
2022/03/02 06:55:01;;;;;;;17.15;10.85;;;;;;;3.17;54.42;101397.81;4180920;28;20088;-61
2022/03/02 06:57:07;;;;;;;19.23;12.93;;;;;;;3.24;53.97;101406.00;4180804;28;20041;-61
2022/03/02 06:59:12;;;;;;;27.17;13.35;;;;;;;3.42;52.69;101397.59;4181515;28;20106;-60
2022/03/02 07:01:24;;;;;;;26.15;12.55;;;;;;;3.46;52.11;101395.28;4180743;28;20052;-62
2022/03/02 07:03:31;;;;;;;26.45;13.15;;;;;;;3.49;51.89;101392.91;4180569;28;20119;-61
2022/03/02 07:05:34;;;;;;;29.17;13.85;;;;;;;3.40;51.99;101402.66;4181200;28;20111;-60
2022/03/02 07:07:38;;;;;;;23.35;13.02;;;;;;;3.36;52.66;101402.34;4180008;28;20391;-60
2022/03/02 07:09:40;;;;;;;28.83;11.75;;;;;;;3.31;52.31;101387.56;4181280;28;20049;-61
2022/03/02 07:11:44;;;;;;;22.60;12.32;;;;;;;3.31;52.71;101394.38;4181392;28;20055;-60
2022/03/02 07:13:48;;;;;;;20.00;12.45;;;;;;;3.36;53.54;101395.56;4180371;28;20411;-61
2022/03/02 07:15:52;;;;;;;22.80;12.43;;;;;;;3.42;52.83;101398.47;4181143;28;20084;-61
2022/03/02 07:17:59;;;;;;;20.17;12.15;;;;;;;3.51;52.27;101398.13;4180360;28;20049;-60
2022/03/02 07:20:04;;;;;;;20.83;12.13;;;;;;;3.51;52.85;101392.97;4181173;28;20086;-60
2022/03/02 07:22:08;;;;;;;26.55;13.60;;;;;;;3.59;53.46;101394.31;4180249;28;20056;-60
2022/03/02 07:24:17;;;;;;;20.35;12.32;;;;;;;3.76;51.32;101397.84;4181044;28;20033;-60
2022/03/02 07:26:20;;;;;;;19.25;12.68;;;;;;;3.83;51.04;101399.09;4181036;28;20123;-60
2022/03/02 07:28:24;;;;;;;23.40;12.68;;;;;;;3.75;50.53;101400.31;4181009;28;20051;-60
2022/03/02 07:30:28;;;;;;;16.70;11.52;;;;;;;3.73;51.42;101400.22;4180935;28;20051;-60
2022/03/02 07:32:32;;;;;;;;;;;;;;;3.65;51.15;101396.31;4180592;28;20037;-60
2022/03/02 07:34:42;;;;;;;21.92;11.57;;;;;;;3.84;50.88;101396.59;4174262;28;20302;-60
2022/03/02 07:36:45;;;;;;;25.35;12.98;;;;;;;3.82;51.23;101390.47;4165989;28;20469;-60
2022/03/02 07:38:48;;;;;;;25.05;12.68;;;;;;;3.98;50.83;101394.78;4176604;28;20049;-60
2022/03/02 07:40:52;;;;;;;22.77;12.57;;;;;;;3.96;50.33;101391.25;4179977;28;20056;-60
2022/03/02 07:42:54;;;;;;;18.00;11.85;;;;;;;3.86;50.52;101400.94;4178664;28;20128;-61
2022/03/02 07:44:58;;;;;;;23.52;11.85;;;;;;;3.90;50.20;101396.06;4173335;28;20064;-60
2022/03/02 07:47:00;;;;;;;23.02;11.90;;;;;;;3.93;50.88;101396.22;4179782;28;20457;-60
2022/03/02 07:49:05;;;;;;;23.75;13.25;;;;;;;3.94;50.93;101399.69;4179364;28;20045;-60
2022/03/02 07:51:09;;;;;;;30.83;14.18;;;;;;;3.96;51.16;101396.41;4179235;28;20538;-60
2022/03/02 07:53:16;;;;;;;22.42;13.75;;;;;;;4.01;51.04;101394.06;4179715;28;20071;-60
2022/03/02 07:55:20;;;;;;;25.20;13.48;;;;;;;3.90;50.66;101387.44;4180246;28;20036;-60
2022/03/02 07:57:23;;;;;;;25.65;12.80;;;;;;;3.87;50.83;101384.69;4177904;28;20037;-60
2022/03/02 07:59:33;;;;;;;41.90;16.13;;;;;;;3.92;50.54;101386.72;4176508;28;20045;-60
2022/03/02 08:01:38;;;;;;;26.90;14.05;;;;;;;3.87;51.40;101392.41;4171552;28;20557;-60
2022/03/02 08:03:43;;;;;;;30.65;14.15;;;;;;;4.00;51.08;101390.63;4163690;28;20045;-60
2022/03/02 08:05:46;;;;;;;;;;;;;;;3.95;51.45;101383.44;4180852;28;20518;-60
2022/03/02 08:07:50;;;;;;;24.52;12.20;;;;;;;3.91;51.88;101384.94;4179699;28;19925;-61
2022/03/02 08:09:53;;;;;;;27.45;13.13;;;;;;;3.98;51.20;101383.63;4179488;28;20064;-60
2022/03/02 08:11:57;;;;;;;24.38;12.00;;;;;;;4.03;51.11;101389.91;4171154;28;20498;-61
2022/03/02 08:14:01;;;;;;;20.52;11.68;;;;;;;4.02;50.94;101391.59;4177637;28;20437;-61
2022/03/02 08:16:04;;;;;;;21.92;12.30;;;;;;;4.06;51.44;101377.22;4174363;28;20087;-60
2022/03/02 08:18:07;;;;;;;36.40;12.27;;;;;;;4.15;50.84;101376.84;4174065;28;20051;-61
2022/03/02 08:20:27;;;;;;;22.73;13.25;;;;;;;4.13;51.06;101379.34;4178453;28;20136;-61
2022/03/02 08:22:31;;;;;;;20.17;12.32;;;;;;;4.12;52.25;101380.13;4174210;28;20461;-61
2022/03/02 08:24:41;;;;;;;19.90;11.57;;;;;;;4.13;51.97;101373.28;4185076;28;20044;-61
2022/03/02 08:26:49;;;;;;;20.63;11.70;;;;;;;4.15;51.61;101382.88;4167754;28;20544;-61
2022/03/02 08:28:54;;;;;;;23.00;11.68;;;;;;;4.11;51.56;101378.34;4167982;28;20099;-61
2022/03/02 08:30:57;;;;;;;23.85;12.98;;;;;;;4.17;51.38;101383.81;4163780;28;20042;-61
2022/03/02 08:33:02;;;;;;;27.20;12.75;;;;;;;4.39;50.54;101377.28;4164871;28;20099;-61
2022/03/02 08:35:05;;;;;;;30.27;12.77;;;;;;;4.65;48.83;101385.53;4163899;28;20108;-61
2022/03/02 08:37:09;;;;;;;22.10;12.85;;;;;;;4.47;49.23;101385.44;4177978;28;20053;-61
2022/03/02 08:39:14;;;;;;;24.60;12.70;;;;;;;4.43;49.83;101388.63;4180066;28;20095;-61
2022/03/02 08:41:18;;;;;;;18.63;12.23;;;;;;;4.45;49.49;101389.59;4180146;28;20083;-61
2022/03/02 08:43:21;;;;;;;23.83;11.52;;;;;;;4.54;49.37;101391.00;4169493;28;20518;-61
2022/03/02 08:45:26;;;;;;;19.95;11.68;;;;;;;4.53;50.03;101376.34;4173395;28;20118;-60
2022/03/02 08:47:28;;;;;;;22.25;12.95;;;;;;;4.42;49.74;101387.72;4177544;28;20048;-60
2022/03/02 08:49:31;;;;;;;26.92;13.18;;;;;;;4.48;49.94;101382.94;4179479;28;20472;-60
2022/03/02 08:51:36;;;;;;;20.15;11.27;;;;;;;4.56;50.70;101378.19;4159893;28;20462;-60
2022/03/02 08:53:40;;;;;;;19.63;11.98;;;;;;;4.46;51.04;101383.66;4161503;28;20043;-60
2022/03/02 08:55:44;;;;;;;20.00;11.05;;;;;;;4.51;50.44;101383.09;4159132;28;20096;-61
2022/03/02 08:57:50;;;;;;;17.38;11.50;;;;;;;4.55;51.29;101385.00;4163284;28;20049;-60
2022/03/02 08:59:55;;;;;;;24.60;11.85;;;;;;;4.60;50.97;101387.84;4163481;28;20522;-60
2022/03/02 09:01:59;;;;;;;19.98;11.40;;;;;;;4.64;50.92;101391.47;4162745;28;20041;-61
2022/03/02 09:04:03;;;;;;;29.60;12.70;;;;;;;4.72;50.51;101385.91;4162566;28;20038;-60
2022/03/02 09:06:08;;;;;;;21.30;12.93;;;;;;;4.78;50.50;101381.91;4163247;28;20117;-60
2022/03/02 09:08:13;;;;;;;28.52;13.05;;;;;;;4.93;50.04;101379.25;4162394;28;20474;-60
2022/03/02 09:10:15;;;;;;;24.27;14.13;;;;;;;5.04;48.99;101381.56;4166188;28;20385;-60
2022/03/02 09:12:18;;;;;;;20.55;11.70;;;;;;;4.99;49.08;101384.72;4164870;28;20045;-60
2022/03/02 09:14:23;;;;;;;20.95;12.02;;;;;;;4.93;49.63;101384.41;4163082;28;20041;-60
2022/03/02 09:16:25;;;;;;;17.38;10.45;;;;;;;4.95;49.18;101387.91;4164028;28;20053;-59
2022/03/02 09:18:28;;;;;;;24.05;13.38;;;;;;;4.96;49.00;101387.13;4166498;28;20527;-60
2022/03/02 09:20:31;;;;;;;17.63;11.05;;;;;;;5.07;48.73;101386.00;4165984;28;20103;-60
2022/03/02 09:22:37;;;;;;;23.17;12.43;;;;;;;5.12;49.24;101383.66;4165545;28;20507;-60
2022/03/02 09:24:42;;;;;;;30.20;12.45;;;;;;;4.97;49.37;101391.50;4166401;28;20415;-60
2022/03/02 09:26:46;;;;;;;27.15;13.75;;;;;;;4.91;49.47;101397.19;4166275;28;20061;-61
2022/03/02 09:28:52;;;;;;;26.52;12.02;;;;;;;4.90;49.75;101383.41;4166266;28;20041;-61